Time;durP1;ratioP1;P1;durP2;ratioP2;P2;SDS_P1;SDS_P2;PMS_P1;PMS_P2;Temp;Humidity;BMP_temperature;BMP_pressure;BME280_temperature;BME280_humidity;BME280_pressure;Samples;Min_cycle;Max_cycle;Signal;HPM_P1;HPM_P2
2022/02/07 00:03:15;;;;;;;8.00;2.13;;;;;;;;;;6241902;28;20236;-65
2022/02/07 00:06:36;;;;;;;10.50;3.13;;;;;;;;;;6241761;28;20245;-65
2022/02/07 00:09:58;;;;;;;5.77;2.17;;;;;;;;;;6252415;28;20558;-65
2022/02/07 00:13:18;;;;;;;3.47;1.77;;;;;;;;;;6241823;28;20232;-66
2022/02/07 00:16:40;;;;;;;3.17;1.30;;;;;;;;;;6246684;28;20255;-66
2022/02/07 00:20:04;;;;;;;6.87;1.70;;;;;;;;;;6251080;28;20514;-66
2022/02/07 00:23:26;;;;;;;4.53;1.70;;;;;;;;;;6246009;28;20223;-65
2022/02/07 00:26:48;;;;;;;3.13;1.40;;;;;;;;;;6260494;28;20232;-65
2022/02/07 00:30:10;;;;;;;8.23;2.30;;;;;;;;;;6251019;28;20638;-66
2022/02/07 00:33:31;;;;;;;6.20;2.17;;;;;;;;;;6261920;28;20231;-65
2022/02/07 00:36:52;;;;;;;6.37;2.33;;;;;;;;;;6235148;28;20259;-64
2022/02/07 00:40:38;;;;;;;9.80;1.80;;;;;;;;;;6258717;28;20227;-64
2022/02/07 00:44:10;;;;;;;7.30;1.80;;;;;;;;;;6266020;28;20239;-65
2022/02/07 00:47:30;;;;;;;4.57;1.60;;;;;;;;;;6258824;28;20509;-64
2022/02/07 00:50:51;;;;;;;5.10;1.80;;;;;;;;;;6240354;28;20634;-64
2022/02/07 00:54:13;;;;;;;9.17;1.73;;;;;;;;;;6260872;28;20240;-64
2022/02/07 00:57:33;;;;;;;7.20;2.00;;;;;;;;;;6260768;28;20233;-65
2022/02/07 01:00:56;;;;;;;5.90;2.13;;;;;;;;;;6244720;28;20244;-65
2022/02/07 01:04:22;;;;;;;4.43;1.53;;;;;;;;;;6225859;28;20240;-65
2022/02/07 01:07:54;;;;;;;3.03;1.67;;;;;;;;;;6227765;28;20236;-64
2022/02/07 01:11:35;;;;;;;5.23;1.47;;;;;;;;;;6235509;28;20235;-66
2022/02/07 01:15:02;;;;;;;7.93;1.37;;;;;;;;;;6257995;28;20220;-65
2022/02/07 01:22:32;;;;;;;6.67;2.00;;;;;;;;;;6229933;28;20629;-65
2022/02/07 01:55:16;;;;;;;7.70;2.00;;;;;;;;;;6212743;28;20223;-65
2022/02/07 01:58:37;;;;;;;8.07;1.90;;;;;;;;;;6245925;28;20224;-66
2022/02/07 02:01:58;;;;;;;5.77;2.77;;;;;;;;;;6250576;28;20240;-65
2022/02/07 02:05:19;;;;;;;7.83;3.30;;;;;;;;;;6219905;28;20236;-65
2022/02/07 02:08:41;;;;;;;11.93;2.90;;;;;;;;;;6242878;28;20235;-65
2022/02/07 02:12:05;;;;;;;7.60;2.07;;;;;;;;;;6259043;28;20899;-65
2022/02/07 02:15:41;;;;;;;9.20;3.07;;;;;;;;;;6209283;28;20283;-65
2022/02/07 02:37:22;;;;;;;8.00;2.73;;;;;;;;;;6251420;28;20251;-64
2022/02/07 02:48:05;;;;;;;5.53;2.67;;;;;;;;;;6257803;28;20314;-65
2022/02/07 02:51:28;;;;;;;9.70;3.17;;;;;;;;;;6240669;28;20508;-64
2022/02/07 02:54:49;;;;;;;11.23;2.23;;;;;;;;;;6257384;28;20232;-65
2022/02/07 02:58:14;;;;;;;10.27;2.80;;;;;;;;;;6256966;28;20223;-64
2022/02/07 03:01:36;;;;;;;9.70;2.80;;;;;;;;;;6255114;28;20255;-65
2022/02/07 03:05:16;;;;;;;12.50;2.90;;;;;;;;;;6262524;28;20324;-65
2022/02/07 03:08:38;;;;;;;5.97;2.27;;;;;;;;;;6259385;28;20236;-64
2022/02/07 03:11:59;;;;;;;11.73;2.10;;;;;;;;;;6259770;28;20236;-65
2022/02/07 03:19:00;;;;;;;11.73;3.10;;;;;;;;;;6223932;28;20629;-65
2022/02/07 03:22:20;;;;;;;2.63;2.03;;;;;;;;;;6256217;28;20224;-64
2022/02/07 03:25:41;;;;;;;4.17;1.67;;;;;;;;;;6257079;28;20231;-65
2022/02/07 03:29:02;;;;;;;11.80;3.10;;;;;;;;;;6259668;28;20236;-64
2022/02/07 03:32:25;;;;;;;13.00;4.07;;;;;;;;;;6255959;28;20255;-64
2022/02/07 03:35:59;;;;;;;7.13;2.50;;;;;;;;;;6256979;28;21515;-64
2022/02/07 03:39:20;;;;;;;8.60;2.00;;;;;;;;;;6257062;28;20235;-64
2022/02/07 03:42:42;;;;;;;8.97;1.80;;;;;;;;;;6257841;28;20235;-64
2022/02/07 03:46:04;;;;;;;4.20;2.00;;;;;;;;;;6258419;28;20240;-64
2022/02/07 03:49:25;;;;;;;5.50;1.87;;;;;;;;;;6245532;28;20669;-64
2022/02/07 03:52:46;;;;;;;8.80;2.30;;;;;;;;;;6244393;28;20253;-64
2022/02/07 03:56:09;;;;;;;6.13;1.80;;;;;;;;;;6247000;28;20231;-64
2022/02/07 03:59:34;;;;;;;7.63;2.70;;;;;;;;;;6247932;28;20224;-64
2022/02/07 04:02:57;;;;;;;6.07;2.27;;;;;;;;;;6245056;28;20239;-64
2022/02/07 04:06:39;;;;;;;7.70;2.33;;;;;;;;;;6245156;28;20239;-64
2022/02/07 04:10:09;;;;;;;2.80;1.27;;;;;;;;;;6248978;28;20621;-64
2022/02/07 04:13:34;;;;;;;8.37;2.37;;;;;;;;;;6246963;28;20609;-65
2022/02/07 04:16:59;;;;;;;7.43;2.80;;;;;;;;;;6242457;28;20236;-64
2022/02/07 04:20:26;;;;;;;4.80;1.50;;;;;;;;;;6263276;28;20318;-65
2022/02/07 04:23:48;;;;;;;9.30;2.23;;;;;;;;;;6259017;28;20231;-65
2022/02/07 04:27:24;;;;;;;6.23;2.80;;;;;;;;;;6263456;28;20223;-65
2022/02/07 04:30:46;;;;;;;13.33;2.33;;;;;;;;;;6259108;28;20220;-64
2022/02/07 04:34:08;;;;;;;8.07;2.60;;;;;;;;;;6228496;28;20237;-64
2022/02/07 04:37:29;;;;;;;6.47;1.67;;;;;;;;;;6237614;28;20236;-63
2022/02/07 04:40:51;;;;;;;6.97;2.37;;;;;;;;;;6247472;28;20224;-63
2022/02/07 04:44:17;;;;;;;5.23;1.33;;;;;;;;;;6243798;28;20547;-64
2022/02/07 04:47:55;;;;;;;6.53;1.30;;;;;;;;;;6246217;28;20612;-64
2022/02/07 04:51:43;;;;;;;3.47;1.50;;;;;;;;;;6262575;28;20231;-64
2022/02/07 04:55:13;;;;;;;6.17;1.30;;;;;;;;;;6243087;28;20598;-64
2022/02/07 04:58:42;;;;;;;9.87;2.33;;;;;;;;;;6244859;28;20227;-64
2022/02/07 05:02:09;;;;;;;3.13;1.23;;;;;;;;;;6256424;28;20267;-65
2022/02/07 05:16:30;;;;;;;5.63;1.47;;;;;;;;;;6272091;28;20596;-63
2022/02/07 05:19:58;;;;;;;9.17;2.47;;;;;;;;;;6258332;28;20231;-64
2022/02/07 05:23:30;;;;;;;6.60;2.20;;;;;;;;;;6267934;28;20875;-64
2022/02/07 05:27:09;;;;;;;7.37;2.50;;;;;;;;;;6259881;28;20231;-63
2022/02/07 05:31:09;;;;;;;5.87;2.40;;;;;;;;;;6255400;28;20775;-65
2022/02/07 05:34:47;;;;;;;12.63;1.90;;;;;;;;;;6258002;28;20228;-64
2022/02/07 05:38:25;;;;;;;10.60;3.60;;;;;;;;;;6261519;28;20238;-64
2022/02/07 05:42:15;;;;;;;6.57;2.03;;;;;;;;;;6229843;28;20231;-65
2022/02/07 05:45:56;;;;;;;5.77;1.97;;;;;;;;;;6240012;28;20227;-64
2022/02/07 05:49:43;;;;;;;12.33;2.83;;;;;;;;;;6250301;28;20252;-64
2022/02/07 05:53:28;;;;;;;9.53;2.80;;;;;;;;;;6255942;28;20893;-64
2022/02/07 05:56:55;;;;;;;17.57;4.40;;;;;;;;;;6228678;28;20321;-65
2022/02/07 06:00:48;;;;;;;9.13;2.67;;;;;;;;;;6230235;28;20322;-64
2022/02/07 06:04:11;;;;;;;13.87;5.17;;;;;;;;;;6244991;28;20508;-64
2022/02/07 06:07:32;;;;;;;11.40;2.70;;;;;;;;;;6245698;28;20486;-64
2022/02/07 06:10:54;;;;;;;10.77;3.37;;;;;;;;;;6255392;28;20228;-64
2022/02/07 06:14:16;;;;;;;8.33;2.57;;;;;;;;;;6255986;28;20228;-64
2022/02/07 06:17:37;;;;;;;14.33;2.87;;;;;;;;;;6249842;28;20232;-64
2022/02/07 06:21:02;;;;;;;13.57;4.57;;;;;;;;;;6253454;28;20236;-64
2022/02/07 06:24:24;;;;;;;11.30;3.40;;;;;;;;;;6254741;28;20236;-64
2022/02/07 06:27:47;;;;;;;9.97;3.13;;;;;;;;;;6252092;28;20223;-64
2022/02/07 06:31:12;;;;;;;8.93;2.70;;;;;;;;;;6259654;28;20303;-64
2022/02/07 06:34:33;;;;;;;7.00;2.80;;;;;;;;;;6257291;28;20240;-64
2022/02/07 06:37:56;;;;;;;13.53;3.23;;;;;;;;;;6252695;28;20231;-65
2022/02/07 06:41:17;;;;;;;9.73;3.27;;;;;;;;;;6233912;28;20326;-64
2022/02/07 06:44:40;;;;;;;7.27;2.60;;;;;;;;;;6237145;28;20232;-65
2022/02/07 06:48:02;;;;;;;9.90;2.43;;;;;;;;;;6248578;28;20252;-65
2022/02/07 06:51:25;;;;;;;13.13;4.30;;;;;;;;;;6215676;28;20236;-65
2022/02/07 06:54:49;;;;;;;12.83;3.57;;;;;;;;;;6254143;28;20326;-66
2022/02/07 06:58:10;;;;;;;11.97;3.70;;;;;;;;;;6247303;28;20247;-65
2022/02/07 07:01:32;;;;;;;14.93;4.40;;;;;;;;;;6236624;28;20235;-65
2022/02/07 07:04:56;;;;;;;14.70;5.27;;;;;;;;;;6222557;28;20224;-66
2022/02/07 07:08:17;;;;;;;14.97;4.87;;;;;;;;;;6251408;28;20243;-65
2022/02/07 07:11:41;;;;;;;18.50;4.80;;;;;;;;;;6242894;28;20251;-66
2022/02/07 07:15:11;;;;;;;13.03;3.87;;;;;;;;;;6244723;28;20487;-66
2022/02/07 07:18:33;;;;;;;14.53;5.13;;;;;;;;;;6252715;28;20228;-65
2022/02/07 07:21:54;;;;;;;14.20;4.70;;;;;;;;;;6227726;28;20281;-65
2022/02/07 07:25:16;;;;;;;16.83;4.60;;;;;;;;;;6232537;28;20231;-67
2022/02/07 07:28:40;;;;;;;15.77;3.50;;;;;;;;;;6238846;28;20239;-66
2022/02/07 07:32:03;;;;;;;16.43;3.63;;;;;;;;;;6237719;28;20266;-66
2022/02/07 07:35:28;;;;;;;16.00;4.60;;;;;;;;;;6238712;28;20652;-67
2022/02/07 07:38:49;;;;;;;15.53;5.13;;;;;;;;;;6248468;28;20329;-66
2022/02/07 07:42:12;;;;;;;9.00;3.63;;;;;;;;;;6238021;28;20232;-66
2022/02/07 07:45:46;;;;;;;14.30;3.67;;;;;;;;;;6249702;28;20798;-64
2022/02/07 07:49:30;;;;;;;11.70;4.90;;;;;;;;;;6224862;28;20964;-65
2022/02/07 07:53:24;;;;;;;15.57;4.13;;;;;;;;;;6214142;28;20243;-68
2022/02/07 08:04:09;;;;;;;18.03;4.80;;;;;;;;;;6240378;28;20219;-67
2022/02/07 08:07:36;;;;;;;17.27;5.73;;;;;;;;;;6205349;28;20232;-65
2022/02/07 08:11:03;;;;;;;18.87;5.97;;;;;;;;;;6224996;28;20318;-64
2022/02/07 08:14:29;;;;;;;13.17;4.33;;;;;;;;;;6225387;28;20326;-67
2022/02/07 08:17:50;;;;;;;16.27;4.23;;;;;;;;;;6241364;28;20231;-65
2022/02/07 08:21:11;;;;;;;10.47;4.57;;;;;;;;;;6247526;28;20232;-67
2022/02/07 08:24:32;;;;;;;14.13;3.97;;;;;;;;;;6247016;28;20228;-66
2022/02/07 08:27:54;;;;;;;20.67;4.37;;;;;;;;;;6240002;28;20264;-66
2022/02/07 08:31:17;;;;;;;20.40;6.17;;;;;;;;;;6238856;28;20231;-66
2022/02/07 08:34:37;;;;;;;17.87;6.13;;;;;;;;;;6244006;28;20228;-65
2022/02/07 08:37:59;;;;;;;16.43;4.60;;;;;;;;;;6249037;28;20228;-64
2022/02/07 08:41:19;;;;;;;10.37;3.90;;;;;;;;;;6250012;28;20228;-66
2022/02/07 08:44:41;;;;;;;13.60;4.53;;;;;;;;;;6243062;28;20235;-65
2022/02/07 08:48:01;;;;;;;11.57;5.03;;;;;;;;;;6217779;28;20818;-63
2022/02/07 08:51:22;;;;;;;11.10;5.13;;;;;;;;;;6238524;28;20240;-65
2022/02/07 08:54:43;;;;;;;15.23;4.50;;;;;;;;;;6242802;28;20240;-66
2022/02/07 08:58:08;;;;;;;16.37;5.37;;;;;;;;;;6243189;28;20235;-67
2022/02/07 09:01:41;;;;;;;21.13;3.87;;;;;;;;;;6236571;28;20566;-65
2022/02/07 09:05:17;;;;;;;13.50;5.30;;;;;;;;;;6243084;28;20232;-65
2022/02/07 09:12:14;;;;;;;17.10;5.23;;;;;;;;;;6235221;28;20232;-66
2022/02/07 09:15:41;;;;;;;23.20;8.13;;;;;;;;;;6248334;28;20692;-66
2022/02/07 09:19:04;;;;;;;18.17;5.93;;;;;;;;;;6246290;28;20235;-65
2022/02/07 09:22:24;;;;;;;19.40;5.43;;;;;;;;;;6247565;28;20232;-64
2022/02/07 09:25:45;;;;;;;23.37;7.83;;;;;;;;;;6242466;28;20842;-65
2022/02/07 09:29:05;;;;;;;18.07;5.90;;;;;;;;;;6249315;28;20231;-66
2022/02/07 09:32:26;;;;;;;14.40;5.27;;;;;;;;;;6248754;28;20590;-64
2022/02/07 09:35:49;;;;;;;15.67;5.30;;;;;;;;;;6251604;28;20235;-66
2022/02/07 09:39:10;;;;;;;16.80;4.83;;;;;;;;;;6256536;28;20232;-65
2022/02/07 09:42:30;;;;;;;10.50;3.63;;;;;;;;;;6256215;28;20578;-65
2022/02/07 09:45:51;;;;;;;15.07;4.20;;;;;;;;;;6252765;28;20231;-65
2022/02/07 09:49:13;;;;;;;11.03;4.17;;;;;;;;;;6260274;28;20232;-64
2022/02/07 09:52:35;;;;;;;14.23;4.40;;;;;;;;;;6261395;28;20254;-64
2022/02/07 09:55:55;;;;;;;12.33;3.60;;;;;;;;;;6261425;28;20235;-64
2022/02/07 09:59:17;;;;;;;14.17;3.97;;;;;;;;;;6257704;28;20287;-65
2022/02/07 10:02:45;;;;;;;18.63;5.63;;;;;;;;;;6254062;28;20496;-65
2022/02/07 10:06:13;;;;;;;10.27;3.10;;;;;;;;;;6251800;28;20648;-65
2022/02/07 10:09:45;;;;;;;12.23;4.57;;;;;;;;;;6250885;28;20227;-65
2022/02/07 10:13:21;;;;;;;16.53;4.70;;;;;;;;;;6228364;28;20232;-67
2022/02/07 10:16:54;;;;;;;11.37;4.23;;;;;;;;;;6250700;28;20247;-65
2022/02/07 10:20:53;;;;;;;13.77;3.80;;;;;;;;;;6247553;28;20353;-66
2022/02/07 10:39:30;;;;;;;12.17;4.60;;;;;;;;;;6146436;28;20790;-66
2022/02/07 10:43:16;;;;;;;15.13;4.83;;;;;;;;;;6255251;28;20235;-64
2022/02/07 10:46:50;;;;;;;9.80;3.80;;;;;;;;;;6255102;28;20235;-65
2022/02/07 10:50:12;;;;;;;15.82;4.05;;;;;;;;;;6248415;28;20255;-65
2022/02/07 10:53:34;;;;;;;11.40;3.78;;;;;;;;;;6252001;28;20227;-64
2022/02/07 10:56:56;;;;;;;16.38;5.78;;;;;;;;;;6237090;28;20240;-64
2022/02/07 11:00:21;;;;;;;16.83;5.80;;;;;;;;;;6247291;28;20696;-64
2022/02/07 11:03:46;;;;;;;9.93;4.53;;;;;;;;;;6236442;28;20228;-63
2022/02/07 11:07:10;;;;;;;11.73;4.85;;;;;;;;;;6253817;28;20247;-65
2022/02/07 11:10:40;;;;;;;12.75;5.03;;;;;;;;;;6245891;28;20228;-66
2022/02/07 11:14:24;;;;;;;11.55;5.10;;;;;;;;;;6246315;28;20227;-66
2022/02/07 11:18:10;;;;;;;9.65;4.32;;;;;;;;;;6221833;28;20240;-66
2022/02/07 11:21:38;;;;;;;10.05;3.50;;;;;;;;;;6248480;28;20557;-66
2022/02/07 11:25:11;;;;;;;9.40;3.17;;;;;;;;;;6257398;28;20589;-66
2022/02/07 11:28:40;;;;;;;14.13;3.93;;;;;;;;;;6255405;28;20332;-67
2022/02/07 11:32:01;;;;;;;12.73;3.63;;;;;;;;;;6246006;28;20227;-66
2022/02/07 11:35:24;;;;;;;11.07;3.53;;;;;;;;;;6250426;28;20318;-66
2022/02/07 11:39:02;;;;;;;16.37;5.00;;;;;;;;;;6248209;28;20255;-66
2022/02/07 11:42:22;;;;;;;14.37;5.10;;;;;;;;;;6252333;28;20227;-66
2022/02/07 11:45:56;;;;;;;12.80;4.63;;;;;;;;;;6200219;28;20236;-66
2022/02/07 11:49:24;;;;;;;18.63;5.17;;;;;;;;;;6255347;28;20394;-66
2022/02/07 11:52:48;;;;;;;11.90;3.10;;;;;;;;;;6253706;28;20239;-66
2022/02/07 11:56:17;;;;;;;10.23;4.23;;;;;;;;;;6241271;28;20231;-65
2022/02/07 11:59:40;;;;;;;9.50;3.73;;;;;;;;;;6230382;28;20613;-68
2022/02/07 12:03:01;;;;;;;9.00;3.67;;;;;;;;;;6245819;28;20318;-66
2022/02/07 12:06:25;;;;;;;9.20;3.33;;;;;;;;;;6249341;28;20228;-64
2022/02/07 12:10:06;;;;;;;7.00;2.92;;;;;;;;;;6250752;28;20231;-67
2022/02/07 12:13:30;;;;;;;6.85;3.10;;;;;;;;;;6246686;28;20553;-66
2022/02/07 12:16:52;;;;;;;7.68;2.65;;;;;;;;;;6236511;28;20572;-67
2022/02/07 12:20:14;;;;;;;8.15;3.65;;;;;;;;;;6260096;28;20247;-67
2022/02/07 12:23:36;;;;;;;6.20;2.63;;;;;;;;;;6260037;28;20231;-67
2022/02/07 12:27:00;;;;;;;10.63;3.78;;;;;;;;;;6258970;28;20231;-67
2022/02/07 12:30:43;;;;;;;12.38;4.43;;;;;;;;;;6253922;28;20232;-66
2022/02/07 12:34:06;;;;;;;13.35;3.58;;;;;;;;;;6258859;28;20247;-66
2022/02/07 12:37:26;;;;;;;12.18;3.20;;;;;;;;;;6253354;28;20227;-66
2022/02/07 12:40:47;;;;;;;9.63;3.25;;;;;;;;;;6253479;28;20252;-64
2022/02/07 12:44:09;;;;;;;9.52;3.15;;;;;;;;;;6256004;28;20235;-65
2022/02/07 12:47:31;;;;;;;10.15;4.00;;;;;;;;;;6257743;28;20240;-65
2022/02/07 12:50:53;;;;;;;9.15;3.38;;;;;;;;;;6256830;28;20227;-65
2022/02/07 12:54:15;;;;;;;7.85;3.03;;;;;;;;;;6259120;28;20495;-64
2022/02/07 12:57:38;;;;;;;11.40;3.88;;;;;;;;;;6257259;28;20647;-65
2022/02/07 13:00:59;;;;;;;11.37;3.87;;;;;;;;;;6245510;28;20240;-65
2022/02/07 13:04:23;;;;;;;10.43;4.00;;;;;;;;;;6255349;28;20235;-66
2022/02/07 13:07:45;;;;;;;13.43;4.07;;;;;;;;;;6257178;28;20236;-66
2022/02/07 13:11:13;;;;;;;9.27;3.53;;;;;;;;;;6244580;28;20467;-65
2022/02/07 13:14:36;;;;;;;5.00;1.73;;;;;;;;;;6247407;28;22491;-67
2022/02/07 13:18:01;;;;;;;3.20;1.50;;;;;;;;;;6250642;28;20235;-67
2022/02/07 13:21:24;;;;;;;3.53;1.97;;;;;;;;;;6258480;28;20322;-68
2022/02/07 13:24:45;;;;;;;7.33;2.57;;;;;;;;;;6257481;28;20239;-66
2022/02/07 13:28:05;;;;;;;5.53;2.17;;;;;;;;;;6246735;28;20323;-65
2022/02/07 13:31:28;;;;;;;9.77;2.37;;;;;;;;;;6255131;28;20236;-65
2022/02/07 13:34:49;;;;;;;6.23;1.93;;;;;;;;;;6254480;28;20578;-66
2022/02/07 13:38:12;;;;;;;6.93;2.07;;;;;;;;;;6259070;28;20235;-66
2022/02/07 13:41:33;;;;;;;9.33;3.73;;;;;;;;;;6256998;28;20231;-64
2022/02/07 13:44:57;;;;;;;8.40;3.07;;;;;;;;;;6251740;28;20232;-64
2022/02/07 13:48:19;;;;;;;6.43;3.00;;;;;;;;;;6238617;28;20339;-66
2022/02/07 13:51:41;;;;;;;8.87;3.37;;;;;;;;;;6243969;28;20236;-65
2022/02/07 13:55:13;;;;;;;11.20;3.10;;;;;;;;;;6241674;28;20237;-66
2022/02/07 13:58:35;;;;;;;13.40;4.07;;;;;;;;;;6244007;28;20239;-66
2022/02/07 14:01:56;;;;;;;8.73;3.50;;;;;;;;;;6241523;28;20228;-66
2022/02/07 14:05:18;;;;;;;10.70;4.27;;;;;;;;;;6257672;28;20236;-65
2022/02/07 14:08:40;;;;;;;15.73;5.03;;;;;;;;;;6258312;28;20244;-64
2022/02/07 14:12:03;;;;;;;12.50;3.90;;;;;;;;;;6259342;28;20739;-64
2022/02/07 14:15:24;;;;;;;14.17;4.50;;;;;;;;;;6239915;28;20235;-64
2022/02/07 14:18:46;;;;;;;7.80;3.37;;;;;;;;;;6255123;28;20236;-64
2022/02/07 14:22:08;;;;;;;24.50;5.03;;;;;;;;;;6254341;28;20222;-65
2022/02/07 14:25:29;;;;;;;14.13;4.87;;;;;;;;;;6254383;28;20322;-64
2022/02/07 14:28:52;;;;;;;11.67;4.10;;;;;;;;;;6251417;28;20582;-65
2022/02/07 14:32:12;;;;;;;11.17;3.70;;;;;;;;;;6253328;28;20216;-64
2022/02/07 14:35:34;;;;;;;12.13;4.87;;;;;;;;;;6249513;28;20598;-65
2022/02/07 14:38:55;;;;;;;12.90;4.47;;;;;;;;;;6249748;28;20235;-66
2022/02/07 14:42:16;;;;;;;15.40;6.23;;;;;;;;;;6230409;28;20232;-66
2022/02/07 14:45:42;;;;;;;11.97;4.47;;;;;;;;;;6252693;28;20239;-67
2022/02/07 14:49:03;;;;;;;14.77;4.50;;;;;;;;;;6250660;28;20236;-66
2022/02/07 14:52:24;;;;;;;10.27;3.93;;;;;;;;;;6254608;28;20339;-66
2022/02/07 14:55:45;;;;;;;14.13;4.23;;;;;;;;;;6247321;28;20235;-66
2022/02/07 14:59:05;;;;;;;6.07;2.83;;;;;;;;;;6253844;28;20220;-66
2022/02/07 15:02:27;;;;;;;7.17;3.33;;;;;;;;;;6240545;28;20231;-64
2022/02/07 15:05:50;;;;;;;10.50;3.47;;;;;;;;;;6236870;28;20224;-64
2022/02/07 15:09:11;;;;;;;10.03;3.90;;;;;;;;;;6253689;28;20334;-66
2022/02/07 15:12:33;;;;;;;9.60;3.30;;;;;;;;;;6245912;28;20330;-65
2022/02/07 15:15:54;;;;;;;8.90;2.77;;;;;;;;;;6249554;28;20244;-65
2022/02/07 15:19:16;;;;;;;9.50;3.37;;;;;;;;;;6243961;28;20232;-64
2022/02/07 15:22:37;;;;;;;7.80;3.17;;;;;;;;;;6233672;28;20560;-65
2022/02/07 15:26:01;;;;;;;12.43;2.97;;;;;;;;;;6247084;28;20231;-64
2022/02/07 15:29:21;;;;;;;6.70;3.23;;;;;;;;;;6249584;28;20618;-65
2022/02/07 15:32:44;;;;;;;12.00;3.60;;;;;;;;;;6251985;28;20605;-64
2022/02/07 15:36:06;;;;;;;11.70;3.20;;;;;;;;;;6257763;28;20238;-64
2022/02/07 15:39:27;;;;;;;11.27;3.57;;;;;;;;;;6258759;28;20224;-64
2022/02/07 15:42:48;;;;;;;21.50;3.83;;;;;;;;;;6251109;28;20223;-64
2022/02/07 15:46:08;;;;;;;9.77;3.27;;;;;;;;;;6260311;28;20224;-65
2022/02/07 15:49:29;;;;;;;8.03;4.63;;;;;;;;;;6231243;28;20232;-64
2022/02/07 15:52:50;;;;;;;9.17;2.90;;;;;;;;;;6240904;28;20263;-65
2022/02/07 15:56:11;;;;;;;12.17;3.70;;;;;;;;;;6260773;28;20228;-65
2022/02/07 15:59:31;;;;;;;13.63;4.53;;;;;;;;;;6261436;28;20251;-65
2022/02/07 16:02:53;;;;;;;10.27;4.13;;;;;;;;;;6255997;28;20227;-64
2022/02/07 16:06:16;;;;;;;9.67;4.13;;;;;;;;;;6248311;28;20534;-64
2022/02/07 16:09:39;;;;;;;18.13;3.90;;;;;;;;;;6262174;28;20232;-64
2022/02/07 16:13:04;;;;;;;13.80;3.83;;;;;;;;;;6229918;28;20508;-65
2022/02/07 16:16:28;;;;;;;10.13;4.77;;;;;;;;;;6265042;28;20228;-65
2022/02/07 16:19:49;;;;;;;14.93;4.27;;;;;;;;;;6263074;28;20235;-63
2022/02/07 16:23:10;;;;;;;12.90;3.60;;;;;;;;;;6262678;28;20246;-65
2022/02/07 16:26:32;;;;;;;15.67;5.13;;;;;;;;;;6259941;28;20762;-64
2022/02/07 16:29:52;;;;;;;14.70;6.40;;;;;;;;;;6264104;28;20575;-65
2022/02/07 16:33:14;;;;;;;19.03;5.33;;;;;;;;;;6257259;28;20281;-66
2022/02/07 16:36:34;;;;;;;18.13;4.83;;;;;;;;;;6266258;28;20227;-65
2022/02/07 16:39:55;;;;;;;19.37;6.80;;;;;;;;;;6258813;28;20356;-64
2022/02/07 16:43:18;;;;;;;12.77;4.30;;;;;;;;;;6256616;28;20260;-64
2022/02/07 16:46:48;;;;;;;15.67;5.40;;;;;;;;;;6255049;28;20223;-64
2022/02/07 16:50:08;;;;;;;17.77;6.23;;;;;;;;;;6249942;28;21528;-65
2022/02/07 16:53:29;;;;;;;20.50;5.87;;;;;;;;;;6249941;28;20473;-64
2022/02/07 16:56:51;;;;;;;23.80;6.83;;;;;;;;;;6245801;28;20279;-64
2022/02/07 17:00:13;;;;;;;24.70;5.50;;;;;;;;;;6251257;28;20552;-64
2022/02/07 17:03:34;;;;;;;16.30;4.33;;;;;;;;;;6261134;28;20241;-64
2022/02/07 17:06:54;;;;;;;22.30;4.83;;;;;;;;;;6232168;28;20244;-64
2022/02/07 17:10:15;;;;;;;16.50;4.57;;;;;;;;;;6237771;28;20524;-65
2022/02/07 17:13:35;;;;;;;19.07;5.60;;;;;;;;;;6233624;28;20284;-65
2022/02/07 17:16:57;;;;;;;18.57;4.47;;;;;;;;;;6231753;28;20241;-65
2022/02/07 17:20:18;;;;;;;10.10;4.37;;;;;;;;;;6245301;28;20259;-66
2022/02/07 17:23:39;;;;;;;13.00;4.13;;;;;;;;;;6257062;28;20231;-64
2022/02/07 17:27:00;;;;;;;16.80;3.67;;;;;;;;;;6259182;28;20277;-64
2022/02/07 17:30:20;;;;;;;16.17;5.07;;;;;;;;;;6256330;28;20235;-64
2022/02/07 17:33:43;;;;;;;12.37;3.80;;;;;;;;;;6259299;28;20703;-64
2022/02/07 17:37:04;;;;;;;15.30;4.43;;;;;;;;;;6257524;28;20240;-64
2022/02/07 17:40:24;;;;;;;16.00;4.70;;;;;;;;;;6259625;28;20526;-65
2022/02/07 17:43:51;;;;;;;14.47;4.87;;;;;;;;;;6259254;28;20314;-64
2022/02/07 17:47:11;;;;;;;20.57;5.03;;;;;;;;;;6257447;28;20228;-64
2022/02/07 17:50:33;;;;;;;19.90;4.87;;;;;;;;;;6258456;28;20223;-64
2022/02/07 17:53:54;;;;;;;16.97;4.97;;;;;;;;;;6259137;28;20236;-65
2022/02/07 17:57:17;;;;;;;15.03;4.97;;;;;;;;;;6260288;28;20600;-64
2022/02/07 18:00:37;;;;;;;22.00;5.90;;;;;;;;;;6257859;28;20323;-65
2022/02/07 18:03:58;;;;;;;13.73;6.20;;;;;;;;;;6257164;28;20310;-65
2022/02/07 18:07:20;;;;;;;15.83;6.50;;;;;;;;;;6253695;28;20945;-65
2022/02/07 18:10:41;;;;;;;19.17;6.83;;;;;;;;;;6250942;28;20603;-64
2022/02/07 18:14:01;;;;;;;18.53;6.17;;;;;;;;;;6256882;28;20573;-64
2022/02/07 18:17:22;;;;;;;18.90;6.00;;;;;;;;;;6249809;28;20236;-64
2022/02/07 18:20:44;;;;;;;22.40;6.13;;;;;;;;;;6258177;28;20232;-65
2022/02/07 18:24:07;;;;;;;13.53;4.53;;;;;;;;;;6257375;28;20227;-65
2022/02/07 18:27:28;;;;;;;16.97;4.77;;;;;;;;;;6258399;28;20263;-64
2022/02/07 18:30:49;;;;;;;14.57;4.90;;;;;;;;;;6244319;28;20236;-66
2022/02/07 18:34:10;;;;;;;13.33;6.10;;;;;;;;;;6243448;28;20548;-66
2022/02/07 18:37:31;;;;;;;17.83;5.23;;;;;;;;;;6250771;28;20232;-65
2022/02/07 18:40:57;;;;;;;23.97;5.50;;;;;;;;;;6250249;28;20228;-63
2022/02/07 18:44:20;;;;;;;20.73;6.47;;;;;;;;;;6252774;28;20281;-65
2022/02/07 18:47:41;;;;;;;26.57;6.73;;;;;;;;;;6249807;28;20231;-65
2022/02/07 18:51:06;;;;;;;18.20;6.17;;;;;;;;;;6252147;28;20239;-65
2022/02/07 18:54:31;;;;;;;18.20;5.60;;;;;;;;;;6254580;28;20227;-65
2022/02/07 18:58:09;;;;;;;25.13;7.23;;;;;;;;;;6240718;28;20231;-64
2022/02/07 19:01:38;;;;;;;25.23;7.27;;;;;;;;;;6242430;28;20231;-65
2022/02/07 19:05:16;;;;;;;21.40;6.87;;;;;;;;;;6244877;28;21565;-65
2022/02/07 19:08:36;;;;;;;26.33;6.40;;;;;;;;;;6248848;28;20798;-63
2022/02/07 19:11:57;;;;;;;17.30;4.53;;;;;;;;;;6240838;28;20228;-64
2022/02/07 19:15:19;;;;;;;20.77;5.17;;;;;;;;;;6233563;28;20235;-65
2022/02/07 19:18:49;;;;;;;18.23;6.07;;;;;;;;;;6254859;28;20649;-64
2022/02/07 19:22:21;;;;;;;21.27;6.53;;;;;;;;;;6242880;28;20243;-64
2022/02/07 19:25:52;;;;;;;19.27;6.20;;;;;;;;;;6243883;28;20235;-63
2022/02/07 19:29:17;;;;;;;13.80;5.70;;;;;;;;;;6254704;28;20228;-64
2022/02/07 19:32:45;;;;;;;20.77;6.90;;;;;;;;;;6239176;28;20672;-66
2022/02/07 19:36:05;;;;;;;18.47;5.63;;;;;;;;;;6253551;28;20235;-65
2022/02/07 19:39:27;;;;;;;17.63;5.93;;;;;;;;;;6256520;28;20255;-65
2022/02/07 19:42:53;;;;;;;19.47;6.77;;;;;;;;;;6256032;28;20315;-63
2022/02/07 19:46:14;;;;;;;23.23;6.07;;;;;;;;;;6254611;28;20228;-64
2022/02/07 19:49:36;;;;;;;23.20;6.10;;;;;;;;;;6255032;28;20232;-66
2022/02/07 19:52:56;;;;;;;14.53;4.27;;;;;;;;;;6255665;28;20223;-65
2022/02/07 19:56:22;;;;;;;19.93;6.17;;;;;;;;;;6252188;28;21818;-66
2022/02/07 19:59:45;;;;;;;33.90;6.93;;;;;;;;;;6258365;28;20232;-67
2022/02/07 20:03:07;;;;;;;20.77;5.07;;;;;;;;;;6235918;28;20236;-64
2022/02/07 20:06:29;;;;;;;27.17;5.00;;;;;;;;;;6241427;28;20502;-64
2022/02/07 20:09:51;;;;;;;17.40;5.70;;;;;;;;;;6232051;28;20236;-66
2022/02/07 20:13:12;;;;;;;13.87;4.73;;;;;;;;;;6256473;28;20251;-65
2022/02/07 20:16:32;;;;;;;16.50;6.27;;;;;;;;;;6255134;28;20529;-65
2022/02/07 20:19:56;;;;;;;17.53;5.67;;;;;;;;;;6247374;28;20243;-66
2022/02/07 20:23:20;;;;;;;19.13;5.27;;;;;;;;;;6248946;28;20469;-66
2022/02/07 20:26:40;;;;;;;16.53;5.57;;;;;;;;;;6249812;28;20236;-66
2022/02/07 20:30:01;;;;;;;18.83;4.93;;;;;;;;;;6248953;28;20228;-65
2022/02/07 20:33:22;;;;;;;21.70;5.70;;;;;;;;;;6232593;28;20232;-65
2022/02/07 20:36:43;;;;;;;16.13;5.63;;;;;;;;;;6251863;28;20232;-66
2022/02/07 20:40:06;;;;;;;21.90;6.13;;;;;;;;;;6256131;28;20227;-65
2022/02/07 20:43:30;;;;;;;16.97;4.10;;;;;;;;;;6259401;28;20509;-65
2022/02/07 20:46:53;;;;;;;14.20;5.00;;;;;;;;;;6256025;28;20240;-67
2022/02/07 20:50:13;;;;;;;15.97;4.43;;;;;;;;;;6249520;28;20505;-65
2022/02/07 20:53:34;;;;;;;14.87;4.80;;;;;;;;;;6259158;28;20227;-67
2022/02/07 20:56:57;;;;;;;14.90;3.90;;;;;;;;;;6261177;28;20532;-66
2022/02/07 21:00:18;;;;;;;17.13;5.03;;;;;;;;;;6257308;28;20235;-65
2022/02/07 21:03:44;;;;;;;18.30;5.33;;;;;;;;;;6248890;28;20916;-68
2022/02/07 21:07:11;;;;;;;18.77;6.50;;;;;;;;;;6251787;28;20228;-64
2022/02/07 21:10:33;;;;;;;24.13;6.23;;;;;;;;;;6254913;28;20540;-64
2022/02/07 21:13:55;;;;;;;19.23;6.53;;;;;;;;;;6249277;28;20239;-64
2022/02/07 21:17:16;;;;;;;12.93;4.30;;;;;;;;;;6258189;28;20227;-66
2022/02/07 21:20:37;;;;;;;22.53;5.73;;;;;;;;;;6254345;28;20236;-65
2022/02/07 21:23:58;;;;;;;14.93;4.87;;;;;;;;;;6260023;28;20260;-67
2022/02/07 21:27:19;;;;;;;19.17;3.93;;;;;;;;;;6255123;28;20223;-66
2022/02/07 21:30:40;;;;;;;14.70;5.90;;;;;;;;;;6259574;28;20597;-64
2022/02/07 21:34:04;;;;;;;24.80;7.40;;;;;;;;;;6241962;28;20512;-65
2022/02/07 21:37:24;;;;;;;12.13;3.83;;;;;;;;;;6234636;28;20582;-65
2022/02/07 21:41:07;;;;;;;17.77;5.40;;;;;;;;;;6253205;28;20232;-65
2022/02/07 21:44:36;;;;;;;18.47;3.93;;;;;;;;;;6230450;28;20935;-64
2022/02/07 21:48:00;;;;;;;15.93;6.03;;;;;;;;;;6245321;28;20299;-64
2022/02/07 21:51:21;;;;;;;21.97;5.17;;;;;;;;;;6241798;28;21238;-65
2022/02/07 21:54:56;;;;;;;18.93;4.90;;;;;;;;;;6233937;28;20326;-67